Terminal Aerodrome Forecast
Issued by NWS

Current Version | Previous Version | Text Only | Print | Product List | Glossary On
Versions: 1 2 3 4 5 6 7 8 9 10 11 12 13 14 15 16 17 18
000
FTUS41 KBGM 121140
TAFELM
TAF
KELM 121140Z 1212/1312 19007KT P6SM -SN OVC020
      TEMPO 1212/1214 2SM -SN OVC015
     FM121400 24008G14KT P6SM OVC015
     FM121700 27011G17KT 5SM -SN OVC020
     FM122100 28013G27KT P6SM BKN035
     FM130900 29012G22KT 3SM -SHSN OVC025=

USA.gov is the U.S. government's official web portal to all federal, state and local government web resources and services.